KGRF/GRF METAR and TAF weather

Enter ICAO airport designator
Station Type Date Time Source
KGRF METAR 2019/02/20 16:58 UTC NOAA

KGRF 201658Z 00000KT 10SM BKN021 OVC027 03/03 A2986 RMK AO2A DZB10E21DZB24E25RAB25E42 SLP118 P0000 T00270027 $


Station Type Date Time Source
KGRF Decoded METAR 2019/02/20 16:58 UTC NOAA

Fort Lewis / Gray U. S. Army Airfield, WA, United States (KGRF) 47-07N 122-33W 87M
Feb 20, 2019 - 11:58 AM EST / 2019.02.20 1658 UTC
Wind: Calm:0
Visibility: 10 mile(s):0
Sky conditions: overcast
Precipitation last hour: A trace
Temperature: 36.9 F (2.7 C)
Dew Point: 36.9 F (2.7 C)
Relative Humidity: 100%
Pressure (altimeter): 29.86 in. Hg (1011 hPa)
ob: KGRF 201658Z 00000KT 10SM BKN021 OVC027 03/03 A2986 RMK AO2A DZB10E21DZB24E25RAB25E42 SLP118 P0000 T00270027
cycle: 17

Station Type Date Time Source
KGRF TAF 2019/02/20 14:25 UTC NOAA

TAF
AMD KGRF 201419Z 2014/2119 VRB06KT 9000 -SHRA BR OVC040 610406 QNH2978INS
BECMG 2015/2016 VRB06KT 9999 NSW FEW010 BKN030 OVC050 620303 QNH2983INS
BECMG 2102/2103 03012KT 9999 BKN010 620208 QNH2988INS
BECMG 2108/2109 03009KT 3200 BR BKN015 QNH2988INS TX05/2022Z TN01/2113Z


Example: see airport list